Golden Beach, Florida
Current Conditions -  °F | °C
As of 7:53 AM on Monday 20 Oct 2014 (Local Time) from KHWO Reporting Station
Clear Clear  
Wind Chill: 70°   Ceiling: Unl
Heat Index: 70°   Visibility: 10mi
Dew Point: 66°   Wind: 0mph
Humidity: 87%   Direction: NA
Pressure: 30.02"   Gusts: NA
Location:  25.9339°N, 80.1467°W
Report Text: KHWO 201153Z 00000KT 10SM CLR 21/19 A3002 RMK AO2 SLP164 T02110189 10228 20200 53009
Loading
Personal Weather Stations






























Interactive Weather Map
Tropical Storm Tracking
New forecast layout! Learn more

10-Day Weather Forecast

Advertisements
Track Severe Weather on mobile